createdAt,value
2022-12-04T00:02:22.806Z,-0.50
2022-12-04T00:12:26.681Z,-0.50
2022-12-04T00:22:31.935Z,-0.50
2022-12-04T00:32:35.706Z,-0.50
2022-12-04T00:42:40.933Z,-0.50
2022-12-04T00:52:46.072Z,-0.50
2022-12-04T01:02:51.290Z,-0.40
2022-12-04T01:12:55.022Z,-0.40
2022-12-04T01:23:00.596Z,-0.50
2022-12-04T01:33:04.508Z,-0.40
2022-12-04T01:43:13.996Z,-0.40
2022-12-04T01:53:18.555Z,-0.50
2022-12-04T02:03:23.758Z,-0.50
2022-12-04T02:13:40.018Z,-0.50
2022-12-04T02:24:13.307Z,-0.50
2022-12-04T02:34:26.544Z,-0.50
2022-12-04T02:44:37.159Z,-0.50
2022-12-04T02:54:48.544Z,-0.40
2022-12-04T03:04:53.511Z,-0.40
2022-12-04T03:15:03.527Z,-0.40
2022-12-04T03:25:09.545Z,-0.30
2022-12-04T03:35:21.451Z,-0.20
2022-12-04T03:45:30.711Z,-0.20
2022-12-04T03:55:42.908Z,-0.10
2022-12-04T04:05:52.143Z,0.00
2022-12-04T04:16:15.842Z,0.00
2022-12-04T04:26:20.572Z,0.10
2022-12-04T04:36:37.884Z,0.10
2022-12-04T04:46:48.060Z,0.10
2022-12-04T04:56:53.319Z,0.00
2022-12-04T05:06:57.160Z,0.10
2022-12-04T05:17:03.835Z,0.10
2022-12-04T05:27:10.364Z,0.10
2022-12-04T05:37:15.664Z,0.10
2022-12-04T05:47:19.636Z,0.20
2022-12-04T05:57:25.652Z,0.20
2022-12-04T06:07:29.690Z,0.20
2022-12-04T06:17:34.999Z,0.30
2022-12-04T06:27:38.987Z,0.30
2022-12-04T06:37:44.210Z,0.20
2022-12-04T06:47:47.911Z,0.20
2022-12-04T06:57:52.965Z,0.20
2022-12-04T07:07:56.702Z,0.20
2022-12-04T07:18:02.329Z,0.30
2022-12-04T07:28:06.465Z,0.40
2022-12-04T07:38:11.710Z,0.50
2022-12-04T07:48:15.633Z,0.60
2022-12-04T07:58:20.731Z,0.60
2022-12-04T08:08:24.665Z,0.80
2022-12-04T08:18:30.049Z,0.90
2022-12-04T08:28:34.395Z,1.00
2022-12-04T08:38:40.279Z,1.10
2022-12-04T08:48:44.946Z,1.20
2022-12-04T08:58:51.101Z,1.30
2022-12-04T09:08:56.447Z,1.50
2022-12-04T09:19:03.155Z,1.70
2022-12-04T09:29:07.831Z,1.90
2022-12-04T09:39:13.477Z,2.10
2022-12-04T09:49:23.562Z,2.00
2022-12-04T09:59:32.682Z,2.10
2022-12-04T10:09:47.771Z,2.20
2022-12-04T10:20:04.282Z,2.20
2022-12-04T10:30:19.912Z,2.50
2022-12-04T10:40:31.724Z,2.70
2022-12-04T10:50:36.152Z,3.10
2022-12-04T11:00:41.560Z,3.20
2022-12-04T11:10:45.850Z,3.50
2022-12-04T11:20:58.006Z,3.60
2022-12-04T11:31:04.675Z,3.70
2022-12-04T11:41:27.143Z,3.70
2022-12-04T11:51:46.141Z,3.90
2022-12-04T12:02:02.209Z,4.20
2022-12-04T12:12:12.487Z,6.20
2022-12-04T12:22:35.293Z,9.70
2022-12-04T12:33:05.398Z,16.90
2022-12-04T12:43:18.105Z,20.10
2022-12-04T12:53:27.194Z,22.20
2022-12-04T13:03:48.382Z,23.10
2022-12-04T13:13:56.300Z,23.70
2022-12-04T13:24:28.678Z,21.80
2022-12-04T13:34:51.964Z,18.50
2022-12-04T13:45:00.767Z,14.70
2022-12-04T13:55:05.162Z,10.50
2022-12-04T14:05:13.058Z,7.80
2022-12-04T14:15:25.079Z,6.00
2022-12-04T14:25:39.401Z,4.70
2022-12-04T14:35:51.659Z,3.70
2022-12-04T14:46:02.679Z,2.90
2022-12-04T14:56:24.910Z,2.20
2022-12-04T15:06:33.158Z,1.70
2022-12-04T15:16:36.826Z,1.40
2022-12-04T15:26:42.306Z,1.10
2022-12-04T15:36:51.064Z,0.80
2022-12-04T15:46:57.239Z,0.60
2022-12-04T15:57:04.686Z,0.50
2022-12-04T16:07:24.126Z,0.70
2022-12-04T16:17:33.420Z,0.80
2022-12-04T16:27:38.940Z,0.80
2022-12-04T16:37:42.805Z,0.80
2022-12-04T16:47:49.677Z,0.90
2022-12-04T16:57:53.548Z,0.90
2022-12-04T17:07:58.712Z,0.80
2022-12-04T17:18:05.954Z,0.80
2022-12-04T17:28:16.031Z,0.80
2022-12-04T17:38:20.084Z,0.70
2022-12-04T17:48:26.221Z,0.60
2022-12-04T17:58:31.744Z,0.60
2022-12-04T18:08:36.950Z,0.50
2022-12-04T18:18:41.406Z,0.50
2022-12-04T18:28:47.342Z,0.50
2022-12-04T18:38:56.946Z,0.50
2022-12-04T18:49:02.311Z,0.50
2022-12-04T18:59:09.599Z,0.50
2022-12-04T19:09:18.143Z,0.50
2022-12-04T19:19:22.068Z,0.50
2022-12-04T19:29:27.359Z,0.50
2022-12-04T19:39:31.299Z,0.50
2022-12-04T19:49:36.449Z,0.50
2022-12-04T19:59:45.677Z,0.50
2022-12-04T20:09:52.642Z,0.50
2022-12-04T20:19:56.573Z,0.50
2022-12-04T20:30:01.957Z,0.40
2022-12-04T20:40:07.681Z,0.50
2022-12-04T20:50:13.100Z,0.50
2022-12-04T21:00:18.196Z,0.40
2022-12-04T21:10:23.367Z,0.40
2022-12-04T21:20:27.155Z,0.40
2022-12-04T21:30:33.596Z,0.40
2022-12-04T21:40:42.168Z,0.40
2022-12-04T21:50:47.634Z,0.40
2022-12-04T22:00:51.758Z,0.40
2022-12-04T22:10:57.004Z,0.30
2022-12-04T22:21:01.307Z,0.30
2022-12-04T22:31:08.805Z,0.40
2022-12-04T22:41:16.105Z,0.40
2022-12-04T22:51:23.051Z,0.40
2022-12-04T23:01:29.073Z,0.40
2022-12-04T23:11:34.394Z,0.50
2022-12-04T23:21:38.200Z,0.40
2022-12-04T23:31:43.628Z,0.30
2022-12-04T23:41:47.615Z,0.30
2022-12-04T23:51:52.832Z,0.40
